createdAt,value
2023-03-05T00:00:01.625Z,96738.88
2023-03-05T00:02:29.461Z,96713.66
2023-03-05T00:04:57.303Z,96728.72
2023-03-05T00:07:25.082Z,96734.75
2023-03-05T00:09:52.830Z,96732.22
2023-03-05T00:12:20.716Z,96726.09
2023-03-05T00:14:49.754Z,96731.72
2023-03-05T00:17:17.570Z,96724.25
2023-03-05T00:19:45.399Z,96726.59
2023-03-05T00:22:13.150Z,96733.59
2023-03-05T00:24:40.938Z,96732.56
2023-03-05T00:27:08.788Z,96728.63
2023-03-05T00:29:36.561Z,96728.63
2023-03-05T00:32:06.140Z,96734.06
2023-03-05T00:34:33.871Z,96730.97
2023-03-05T00:37:01.712Z,96737.84
2023-03-05T00:39:29.522Z,96742.44
2023-03-05T00:41:57.337Z,96735.75
2023-03-05T00:44:25.528Z,96716.56
2023-03-05T00:46:53.360Z,96730.03
2023-03-05T00:49:22.598Z,96727.50
2023-03-05T00:51:50.413Z,96724.91
2023-03-05T00:54:18.974Z,96719.38
2023-03-05T00:56:47.464Z,96715.41
2023-03-05T00:59:15.353Z,96708.78
2023-03-05T01:01:43.169Z,96711.91
2023-03-05T01:04:11.277Z,96712.19
2023-03-05T01:06:43.091Z,96699.53
2023-03-05T01:09:10.910Z,96689.19
2023-03-05T01:11:38.744Z,96689.56
2023-03-05T01:14:06.468Z,96689.00
2023-03-05T01:16:34.450Z,96687.22
2023-03-05T01:19:02.327Z,96679.81
2023-03-05T01:21:30.068Z,96678.78
2023-03-05T01:24:00.045Z,96677.09
2023-03-05T01:26:28.281Z,96676.72
2023-03-05T01:28:56.033Z,96670.34
2023-03-05T01:31:23.926Z,96674.19
2023-03-05T01:33:53.072Z,96656.97
2023-03-05T01:36:20.986Z,96657.63
2023-03-05T01:38:49.227Z,96657.47
2023-03-05T01:41:19.975Z,96659.97
2023-03-05T01:43:48.823Z,96654.66
2023-03-05T01:46:26.667Z,96638.22
2023-03-05T01:48:58.546Z,96655.75
2023-03-05T01:51:30.261Z,96650.47
2023-03-05T01:54:00.489Z,96644.28
2023-03-05T01:56:31.780Z,96643.09
2023-03-05T01:59:04.280Z,96641.38
2023-03-05T02:01:35.239Z,96636.50
2023-03-05T02:04:03.506Z,96620.88
2023-03-05T02:06:31.489Z,96627.66
2023-03-05T02:09:00.659Z,96629.28
2023-03-05T02:11:30.698Z,96626.97
2023-03-05T02:13:59.513Z,96624.09
2023-03-05T02:16:27.623Z,96625.47
2023-03-05T02:18:55.468Z,96616.88
2023-03-05T02:21:37.886Z,96602.44
2023-03-05T02:24:06.578Z,96622.28
2023-03-05T02:26:34.605Z,96597.78
2023-03-05T02:29:05.074Z,96620.97
2023-03-05T02:31:32.881Z,96621.53
2023-03-05T02:34:00.681Z,96614.53
2023-03-05T02:36:29.871Z,96612.44
2023-03-05T02:38:59.053Z,96610.19
2023-03-05T02:41:27.101Z,96607.88
2023-03-05T02:43:55.039Z,96596.25
2023-03-05T02:46:23.328Z,96597.69
2023-03-05T02:48:51.153Z,96599.59
2023-03-05T02:51:19.192Z,96595.97
2023-03-05T02:53:48.302Z,96587.03
2023-03-05T02:56:16.037Z,96582.84
2023-03-05T02:58:43.772Z,96585.47
2023-03-05T03:01:11.588Z,96581.94
2023-03-05T03:03:39.811Z,96577.66
2023-03-05T03:06:08.584Z,96574.13
2023-03-05T03:08:36.319Z,96573.56
2023-03-05T03:11:11.181Z,96573.28
2023-03-05T03:13:39.223Z,96574.84
2023-03-05T03:16:09.626Z,96569.63
2023-03-05T03:18:37.605Z,96567.66
2023-03-05T03:21:06.461Z,96565.38
2023-03-05T03:23:35.115Z,96563.75
2023-03-05T03:26:02.856Z,96560.25
2023-03-05T03:28:31.951Z,96556.09
2023-03-05T03:31:00.034Z,96556.25
2023-03-05T03:33:27.779Z,96553.72
2023-03-05T03:35:55.684Z,96524.94
2023-03-05T03:38:23.629Z,96551.78
2023-03-05T03:40:51.558Z,96537.06
2023-03-05T03:43:19.365Z,96534.22
2023-03-05T03:45:48.784Z,96543.81
2023-03-05T03:48:16.569Z,96543.97
2023-03-05T03:50:44.718Z,96528.50
2023-03-05T03:53:14.216Z,96533.88
2023-03-05T03:55:43.955Z,96510.94
2023-03-05T03:58:11.938Z,96527.88
2023-03-05T04:00:40.590Z,96530.59
2023-03-05T04:03:10.062Z,96531.50
2023-03-05T04:05:37.830Z,96527.50
2023-03-05T04:08:08.443Z,96525.66
2023-03-05T04:10:36.170Z,96516.78
2023-03-05T04:13:04.323Z,96514.84
2023-03-05T04:15:32.066Z,96511.75
2023-03-05T04:18:00.346Z,96516.13
2023-03-05T04:20:29.774Z,96508.84
2023-03-05T04:22:57.592Z,96515.13
2023-03-05T04:25:25.758Z,96513.94
2023-03-05T04:27:54.420Z,96521.31
2023-03-05T04:30:22.386Z,96511.19
2023-03-05T04:32:50.158Z,96506.13
2023-03-05T04:35:19.533Z,96508.00
2023-03-05T04:37:49.540Z,96508.56
2023-03-05T04:40:17.799Z,96513.72
2023-03-05T04:42:45.554Z,96506.91
2023-03-05T04:45:13.600Z,96505.19
2023-03-05T04:47:41.449Z,96506.28
2023-03-05T04:50:10.366Z,96508.28
2023-03-05T04:52:40.266Z,96505.81
2023-03-05T04:55:11.335Z,96501.34
2023-03-05T04:57:39.315Z,96506.38
2023-03-05T05:00:14.157Z,96499.72
2023-03-05T05:02:42.467Z,96508.78
2023-03-05T05:05:11.895Z,96506.59
2023-03-05T05:07:39.725Z,96497.28
2023-03-05T05:10:10.798Z,96502.94
2023-03-05T05:12:39.275Z,96497.84
2023-03-05T05:15:08.927Z,96502.56
2023-03-05T05:17:37.298Z,96495.31
2023-03-05T05:20:07.842Z,96495.66
2023-03-05T05:22:36.001Z,96484.03
2023-03-05T05:25:04.022Z,96496.44
2023-03-05T05:27:33.404Z,96482.19
2023-03-05T05:30:01.719Z,96476.19
2023-03-05T05:32:29.551Z,96473.38
2023-03-05T05:34:58.620Z,96481.44
2023-03-05T05:37:28.002Z,96473.63
2023-03-05T05:39:55.997Z,96474.72
2023-03-05T05:42:25.623Z,96476.00
2023-03-05T05:44:55.553Z,96474.38
2023-03-05T05:47:23.341Z,96477.63
2023-03-05T05:49:51.192Z,96457.19
2023-03-05T05:52:19.375Z,96475.53
2023-03-05T05:54:47.184Z,96474.19
2023-03-05T05:57:15.092Z,96470.72
2023-03-05T05:59:43.042Z,96470.91
2023-03-05T06:02:12.325Z,96471.63
2023-03-05T06:04:40.335Z,96473.25
2023-03-05T06:07:08.268Z,96472.91
2023-03-05T06:09:36.638Z,96464.78
2023-03-05T06:12:05.191Z,96468.72
2023-03-05T06:14:32.927Z,96467.88
2023-03-05T06:17:00.722Z,96476.94
2023-03-05T06:19:29.911Z,96465.22
2023-03-05T06:21:57.969Z,96472.84
2023-03-05T06:24:25.831Z,96465.41
2023-03-05T06:26:53.690Z,96467.25
2023-03-05T06:29:21.548Z,96470.06
2023-03-05T06:31:49.715Z,96472.34
2023-03-05T06:34:17.469Z,96464.00
2023-03-05T06:36:46.729Z,96466.91
2023-03-05T06:39:14.628Z,96464.56
2023-03-05T06:41:42.462Z,96461.91
2023-03-05T06:44:11.563Z,96472.97
2023-03-05T06:46:40.291Z,96466.47
2023-03-05T06:49:09.412Z,96471.72
2023-03-05T06:51:39.098Z,96460.78
2023-03-05T06:54:10.210Z,96458.88
2023-03-05T06:56:40.111Z,96461.91
2023-03-05T06:59:08.391Z,96449.44
2023-03-05T07:01:36.296Z,96457.69
2023-03-05T07:04:04.448Z,96458.16
2023-03-05T07:06:35.173Z,96454.81
2023-03-05T07:09:04.371Z,96455.03
2023-03-05T07:11:34.113Z,96452.44
2023-03-05T07:14:02.335Z,96451.47
2023-03-05T07:16:32.460Z,96450.19
2023-03-05T07:19:02.863Z,96451.16
2023-03-05T07:21:33.307Z,96456.63
2023-03-05T07:24:03.082Z,96452.22
2023-03-05T07:26:33.342Z,96453.22
2023-03-05T07:29:02.805Z,96441.69
2023-03-05T07:31:31.983Z,96441.69
2023-03-05T07:34:02.738Z,96446.44
2023-03-05T07:36:31.358Z,96441.88
2023-03-05T07:38:59.159Z,96443.75
2023-03-05T07:41:27.199Z,96436.53
2023-03-05T07:43:56.089Z,96435.41
2023-03-05T07:46:28.821Z,96433.38
2023-03-05T07:48:57.274Z,96440.00
2023-03-05T07:51:26.486Z,96445.47
2023-03-05T07:53:57.488Z,96438.91
2023-03-05T07:56:27.126Z,96435.19
2023-03-05T07:58:54.892Z,96435.38
2023-03-05T08:01:22.692Z,96425.94
2023-03-05T08:03:51.849Z,96437.06
2023-03-05T08:06:19.592Z,96436.69
2023-03-05T08:08:47.414Z,96433.72
2023-03-05T08:11:17.150Z,96426.34
2023-03-05T08:13:45.740Z,96426.94
2023-03-05T08:16:15.989Z,96424.91
2023-03-05T08:18:44.309Z,96424.72
2023-03-05T08:21:19.608Z,96401.34
2023-03-05T08:23:47.426Z,96416.00
2023-03-05T08:26:19.570Z,96419.28
2023-03-05T08:28:47.190Z,96424.63
2023-03-05T08:31:17.262Z,96421.41
2023-03-05T08:33:45.386Z,96421.06
2023-03-05T08:36:13.324Z,96407.59
2023-03-05T08:38:44.619Z,96409.03
2023-03-05T08:41:12.727Z,96419.38
2023-03-05T08:43:40.683Z,96414.19
2023-03-05T08:46:08.577Z,96409.69
2023-03-05T08:48:36.602Z,96406.72
2023-03-05T08:51:08.387Z,96418.56
2023-03-05T08:53:36.694Z,96402.44
2023-03-05T08:56:06.546Z,96410.34
2023-03-05T08:58:34.514Z,96408.16
2023-03-05T09:01:02.324Z,96395.31
2023-03-05T09:03:30.536Z,96396.97
2023-03-05T09:06:01.558Z,96399.41
2023-03-05T09:08:29.574Z,96394.47
2023-03-05T09:10:57.696Z,96396.56
2023-03-05T09:13:26.864Z,96390.16
2023-03-05T09:15:58.408Z,96387.72
2023-03-05T09:18:26.344Z,96383.84
2023-03-05T09:20:54.230Z,96380.66
2023-03-05T09:23:22.677Z,96368.78
2023-03-05T09:25:50.622Z,96374.56
2023-03-05T09:28:18.648Z,96371.53
2023-03-05T09:30:48.242Z,96363.81
2023-03-05T09:33:16.115Z,96365.88
2023-03-05T09:35:43.951Z,96370.16
2023-03-05T09:38:11.791Z,96358.03
2023-03-05T09:40:52.808Z,96363.75
2023-03-05T09:43:31.613Z,96361.50
2023-03-05T09:46:13.783Z,96363.09
2023-03-05T09:48:48.766Z,96361.13
2023-03-05T09:51:21.911Z,96356.28
2023-03-05T09:53:55.436Z,96352.97
2023-03-05T09:56:27.237Z,96343.41
2023-03-05T09:58:57.883Z,96343.19
2023-03-05T10:01:32.073Z,96343.06
2023-03-05T10:04:05.237Z,96339.47
2023-03-05T10:06:35.654Z,96346.91
2023-03-05T10:09:07.879Z,96340.63
2023-03-05T10:11:41.982Z,96335.44
2023-03-05T10:14:16.325Z,96324.38
2023-03-05T10:17:21.088Z,96321.47
2023-03-05T10:20:30.560Z,96329.97
2023-03-05T10:23:16.378Z,96309.97
2023-03-05T10:25:56.042Z,96320.03
2023-03-05T10:28:35.047Z,96314.94
2023-03-05T10:31:24.804Z,96309.72
2023-03-05T10:34:08.160Z,96302.72
2023-03-05T10:36:50.792Z,96304.41
2023-03-05T10:39:47.925Z,96294.19
2023-03-05T10:42:26.277Z,96292.06
2023-03-05T10:44:57.515Z,96280.41
2023-03-05T10:47:29.169Z,96289.38
2023-03-05T10:50:00.133Z,96295.44
2023-03-05T10:52:34.490Z,96290.19
2023-03-05T10:55:02.366Z,96283.25
2023-03-05T10:57:32.870Z,96278.50
2023-03-05T11:00:14.296Z,96283.88
2023-03-05T11:02:57.354Z,96275.38
2023-03-05T11:05:40.931Z,96274.91
2023-03-05T11:08:31.273Z,96270.28
2023-03-05T11:11:11.474Z,96269.28
2023-03-05T11:13:44.951Z,96263.75
2023-03-05T11:16:21.093Z,96265.44
2023-03-05T11:18:49.139Z,96262.09
2023-03-05T11:21:27.756Z,96261.53
2023-03-05T11:24:06.029Z,96250.16
2023-03-05T11:26:34.744Z,96253.25
2023-03-05T11:29:04.945Z,96243.44
2023-03-05T11:31:34.082Z,96246.47
2023-03-05T11:34:04.155Z,96245.25
2023-03-05T11:36:35.657Z,96241.03
2023-03-05T11:39:12.196Z,96232.28
2023-03-05T11:41:42.192Z,96233.38
2023-03-05T11:44:14.534Z,96221.97
2023-03-05T11:46:45.932Z,96221.06
2023-03-05T11:49:19.017Z,96220.63
2023-03-05T11:51:54.645Z,96213.69
2023-03-05T11:54:27.766Z,96206.47
2023-03-05T11:56:56.517Z,96209.13
2023-03-05T11:59:29.205Z,96205.28
2023-03-05T12:01:58.580Z,96201.22
2023-03-05T12:04:27.117Z,96202.69
2023-03-05T12:06:58.999Z,96205.78
2023-03-05T12:09:34.704Z,96182.38
2023-03-05T12:12:09.852Z,96181.34
2023-03-05T12:14:43.276Z,96186.09
2023-03-05T12:17:18.123Z,96175.81
2023-03-05T12:19:55.008Z,96173.69
2023-03-05T12:22:26.633Z,96164.47
2023-03-05T12:24:54.672Z,96154.63
2023-03-05T12:27:36.890Z,96141.88
2023-03-05T12:30:07.852Z,96145.69
2023-03-05T12:33:02.450Z,96130.91
2023-03-05T12:35:41.208Z,96124.75
2023-03-05T12:38:29.989Z,96128.22
2023-03-05T12:41:43.473Z,96129.13
2023-03-05T12:44:23.832Z,96121.13
2023-03-05T12:47:18.334Z,96116.53
2023-03-05T12:49:48.312Z,96116.13
2023-03-05T12:52:27.600Z,96105.38
2023-03-05T12:55:28.172Z,96096.72
2023-03-05T12:57:59.841Z,96104.53
2023-03-05T13:00:33.925Z,96104.19
2023-03-05T13:03:05.757Z,96096.81
2023-03-05T13:05:38.072Z,96084.88
2023-03-05T13:08:16.189Z,96090.22
2023-03-05T13:10:52.891Z,96083.22
2023-03-05T13:13:21.785Z,96085.16
2023-03-05T13:15:51.515Z,96086.53
2023-03-05T13:18:21.715Z,96080.66
2023-03-05T13:20:56.292Z,96086.72
2023-03-05T13:23:26.429Z,96084.94
2023-03-05T13:26:01.174Z,96062.44
2023-03-05T13:28:30.356Z,96068.25
2023-03-05T13:31:00.480Z,96068.81
2023-03-05T13:33:31.445Z,96069.84
2023-03-05T13:35:59.568Z,96070.47
2023-03-05T13:38:32.938Z,96047.88
2023-03-05T13:41:20.510Z,96060.19
2023-03-05T13:43:50.752Z,96061.41
2023-03-05T13:46:26.955Z,96055.13
2023-03-05T13:48:54.918Z,96046.38
2023-03-05T13:51:22.647Z,96053.22
2023-03-05T13:53:51.182Z,96052.66
2023-03-05T13:56:22.705Z,96032.91
2023-03-05T13:58:53.218Z,96040.03
2023-03-05T14:01:30.192Z,96031.78
2023-03-05T14:04:00.700Z,96036.75
2023-03-05T14:06:31.055Z,96030.81
2023-03-05T14:09:07.423Z,96034.31
2023-03-05T14:11:37.165Z,96007.88
2023-03-05T14:14:10.873Z,96011.81
2023-03-05T14:16:38.835Z,96017.97
2023-03-05T14:19:09.164Z,96022.06
2023-03-05T14:21:48.195Z,96017.66
2023-03-05T14:24:22.795Z,96013.66
2023-03-05T14:26:56.805Z,96008.50
2023-03-05T14:29:26.156Z,96004.34
2023-03-05T14:31:57.266Z,96002.28
2023-03-05T14:34:31.868Z,96003.88
2023-03-05T14:37:03.257Z,96004.22
2023-03-05T14:39:46.579Z,95997.53
2023-03-05T14:42:34.973Z,96004.13
2023-03-05T14:45:12.507Z,95998.19
2023-03-05T14:47:40.231Z,95987.28
2023-03-05T14:50:09.278Z,95984.00
2023-03-05T14:52:37.182Z,95987.88
2023-03-05T14:55:06.887Z,95983.47
2023-03-05T14:57:36.147Z,95974.19
2023-03-05T15:00:05.072Z,95965.22
2023-03-05T15:02:32.992Z,95937.84
2023-03-05T15:05:00.726Z,95961.69
2023-03-05T15:07:32.092Z,95959.41
2023-03-05T15:10:00.100Z,95963.13
2023-03-05T15:12:28.163Z,95946.72
2023-03-05T15:14:57.931Z,95948.97
2023-03-05T15:17:34.651Z,95951.63
2023-03-05T15:20:06.661Z,95949.19
2023-03-05T15:22:34.309Z,95955.63
2023-03-05T15:25:02.132Z,95940.53
2023-03-05T15:27:29.885Z,95946.75
2023-03-05T15:30:00.694Z,95935.03
2023-03-05T15:32:29.182Z,95923.31
2023-03-05T15:34:57.463Z,95930.47
2023-03-05T15:37:25.748Z,95925.75
2023-03-05T15:39:53.592Z,95926.19
2023-03-05T15:42:21.338Z,95924.81
2023-03-05T15:44:49.399Z,95915.78
2023-03-05T15:47:18.501Z,95914.97
2023-03-05T15:49:46.202Z,95914.50
2023-03-05T15:52:14.363Z,95913.56
2023-03-05T15:54:42.268Z,95909.09
2023-03-05T15:57:12.006Z,95899.22
2023-03-05T15:59:40.723Z,95898.53
2023-03-05T16:02:08.834Z,95900.25
2023-03-05T16:04:37.934Z,95904.63
2023-03-05T16:07:06.373Z,95891.97
2023-03-05T16:09:38.350Z,95901.72
2023-03-05T16:12:10.064Z,95901.50
2023-03-05T16:14:40.090Z,95898.69
2023-03-05T16:17:09.106Z,95900.31
2023-03-05T16:19:42.193Z,95861.97
2023-03-05T16:22:10.025Z,95895.22
2023-03-05T16:24:37.847Z,95883.22
2023-03-05T16:27:05.907Z,95881.09
2023-03-05T16:29:34.411Z,95874.47
2023-03-05T16:32:04.053Z,95879.38
2023-03-05T16:34:34.473Z,95889.50
2023-03-05T16:37:06.715Z,95888.56
2023-03-05T16:39:34.320Z,95882.28
2023-03-05T16:42:02.148Z,95882.72
2023-03-05T16:44:29.892Z,95879.03
2023-03-05T16:46:58.024Z,95887.97
2023-03-05T16:49:25.867Z,95887.25
2023-03-05T16:51:53.619Z,95883.56
2023-03-05T16:54:22.988Z,95886.50
2023-03-05T16:56:50.740Z,95871.31
2023-03-05T16:59:18.514Z,95876.66
2023-03-05T17:01:46.831Z,95878.50
2023-03-05T17:04:14.644Z,95878.81
2023-03-05T17:06:42.597Z,95875.94
2023-03-05T17:09:10.420Z,95876.69
2023-03-05T17:11:39.854Z,95881.75
2023-03-05T17:14:07.948Z,95879.97
2023-03-05T17:16:35.880Z,95884.19
2023-03-05T17:19:03.734Z,95878.72
2023-03-05T17:21:31.510Z,95884.44
2023-03-05T17:23:59.283Z,95889.69
2023-03-05T17:26:27.240Z,95879.38
2023-03-05T17:28:56.512Z,95881.41
2023-03-05T17:31:24.268Z,95887.09
2023-03-05T17:33:52.516Z,95885.59
2023-03-05T17:36:21.854Z,95886.28
2023-03-05T17:38:50.453Z,95892.91
2023-03-05T17:41:19.265Z,95884.44
2023-03-05T17:43:47.599Z,95885.78
2023-03-05T17:46:17.626Z,95886.28
2023-03-05T17:48:46.167Z,95886.13
2023-03-05T17:51:16.561Z,95889.56
2023-03-05T17:53:44.408Z,95884.53
2023-03-05T17:56:13.863Z,95890.41
2023-03-05T17:58:42.196Z,95892.34
2023-03-05T18:01:10.696Z,95902.53
2023-03-05T18:03:40.695Z,95889.19
2023-03-05T18:06:08.559Z,95908.38
2023-03-05T18:08:36.304Z,95901.47
2023-03-05T18:11:04.090Z,95903.47
2023-03-05T18:13:31.850Z,95897.41
2023-03-05T18:16:00.084Z,95903.47
2023-03-05T18:18:28.393Z,95895.59
2023-03-05T18:20:57.500Z,95903.94
2023-03-05T18:23:25.231Z,95899.47
2023-03-05T18:25:53.110Z,95902.91
2023-03-05T18:28:21.009Z,95900.47
2023-03-05T18:30:48.872Z,95903.47
2023-03-05T18:33:19.856Z,95894.66
2023-03-05T18:35:51.920Z,95904.81
2023-03-05T18:38:21.524Z,95902.34
2023-03-05T18:40:51.388Z,95894.69
2023-03-05T18:43:21.073Z,95887.53
2023-03-05T18:45:49.979Z,95877.38
2023-03-05T18:48:17.863Z,95881.22
2023-03-05T18:50:46.021Z,95891.66
2023-03-05T18:53:14.371Z,95884.94
2023-03-05T18:55:43.642Z,95886.00
2023-03-05T18:58:14.227Z,95880.47
2023-03-05T19:00:43.767Z,95881.97
2023-03-05T19:03:12.633Z,95873.44
2023-03-05T19:05:42.252Z,95868.22
2023-03-05T19:08:10.415Z,95873.50
2023-03-05T19:10:38.530Z,95866.63
2023-03-05T19:13:40.812Z,95868.03
2023-03-05T19:16:12.031Z,95872.13
2023-03-05T19:19:19.876Z,95868.66
2023-03-05T19:21:49.398Z,95864.19
2023-03-05T19:24:17.851Z,95862.94
2023-03-05T19:26:46.656Z,95866.81
2023-03-05T19:29:14.902Z,95865.19
2023-03-05T19:31:44.078Z,95860.50
2023-03-05T19:34:12.307Z,95866.78
2023-03-05T19:36:40.159Z,95863.50
2023-03-05T19:39:09.302Z,95851.53
2023-03-05T19:41:38.063Z,95857.56
2023-03-05T19:44:06.294Z,95855.53
2023-03-05T19:46:34.686Z,95845.38
2023-03-05T19:49:04.164Z,95840.88
2023-03-05T19:51:31.920Z,95861.19
2023-03-05T19:53:59.910Z,95853.44
2023-03-05T19:56:27.721Z,95858.13
2023-03-05T19:58:55.456Z,95860.78
2023-03-05T20:01:26.213Z,95855.53
2023-03-05T20:03:55.945Z,95853.91
2023-03-05T20:06:26.080Z,95846.78
2023-03-05T20:08:54.746Z,95852.06
2023-03-05T20:11:23.192Z,95849.59
2023-03-05T20:13:52.015Z,95847.75
2023-03-05T20:16:25.175Z,95851.81
2023-03-05T20:18:54.825Z,95850.19
2023-03-05T20:21:26.924Z,95846.53
2023-03-05T20:23:55.367Z,95851.81
2023-03-05T20:26:25.792Z,95840.03
2023-03-05T20:28:54.869Z,95824.16
2023-03-05T20:31:24.498Z,95832.88
2023-03-05T20:33:52.624Z,95836.75
2023-03-05T20:36:20.382Z,95841.25
2023-03-05T20:38:49.708Z,95835.56
2023-03-05T20:41:20.800Z,95828.84
2023-03-05T20:43:51.370Z,95827.41
2023-03-05T20:46:21.288Z,95805.84
2023-03-05T20:48:50.964Z,95823.13
2023-03-05T20:51:22.644Z,95822.50
2023-03-05T20:53:53.622Z,95826.03
2023-03-05T20:56:21.614Z,95830.72
2023-03-05T20:58:49.367Z,95824.03
2023-03-05T21:01:17.145Z,95820.97
2023-03-05T21:03:44.903Z,95819.94
2023-03-05T21:06:12.654Z,95816.09
2023-03-05T21:08:40.749Z,95804.72
2023-03-05T21:11:11.170Z,95803.09
2023-03-05T21:13:39.241Z,95805.13
2023-03-05T21:16:08.472Z,95805.84
2023-03-05T21:18:36.282Z,95801.91
2023-03-05T21:21:04.489Z,95806.91
2023-03-05T21:23:32.279Z,95800.53
2023-03-05T21:26:00.166Z,95797.22
2023-03-05T21:28:29.920Z,95791.59
2023-03-05T21:30:57.746Z,95792.41
2023-03-05T21:33:27.615Z,95788.78
2023-03-05T21:35:57.944Z,95781.34
2023-03-05T21:38:29.958Z,95784.81
2023-03-05T21:40:58.499Z,95787.47
2023-03-05T21:43:27.058Z,95787.81
2023-03-05T21:45:57.719Z,95773.50
2023-03-05T21:48:26.041Z,95788.72
2023-03-05T21:50:55.095Z,95782.25
2023-03-05T21:53:23.259Z,95780.31
2023-03-05T21:56:33.813Z,95778.91
2023-03-05T21:59:03.051Z,95779.56
2023-03-05T22:01:32.208Z,95775.13
2023-03-05T22:04:00.165Z,95775.38
2023-03-05T22:06:28.446Z,95772.72
2023-03-05T22:08:56.191Z,95773.97
2023-03-05T22:11:24.289Z,95771.84
2023-03-05T22:13:52.130Z,95775.09
2023-03-05T22:16:24.360Z,95773.88
2023-03-05T22:18:54.181Z,95765.19
2023-03-05T22:21:23.726Z,95770.75
2023-03-05T22:23:53.492Z,95771.34
2023-03-05T22:26:21.807Z,95751.25
2023-03-05T22:28:49.625Z,95760.16
2023-03-05T22:31:24.871Z,95758.97
2023-03-05T22:33:54.647Z,95752.97
2023-03-05T22:36:22.664Z,95759.00
2023-03-05T22:38:50.723Z,95753.09
2023-03-05T22:41:19.810Z,95754.13
2023-03-05T22:43:48.310Z,95761.00
2023-03-05T22:46:18.380Z,95748.38
2023-03-05T22:48:47.098Z,95745.97
2023-03-05T22:51:19.333Z,95736.69
2023-03-05T22:53:47.642Z,95724.69
2023-03-05T22:56:17.432Z,95730.81
2023-03-05T22:58:45.423Z,95738.72
2023-03-05T23:01:14.578Z,95742.44
2023-03-05T23:03:47.243Z,95739.41
2023-03-05T23:06:16.537Z,95738.94
2023-03-05T23:08:44.299Z,95740.53
2023-03-05T23:11:13.495Z,95741.66
2023-03-05T23:13:41.773Z,95727.56
2023-03-05T23:16:10.587Z,95718.78
2023-03-05T23:18:38.726Z,95727.16
2023-03-05T23:21:07.058Z,95723.44
2023-03-05T23:23:36.181Z,95729.72
2023-03-05T23:26:03.995Z,95724.09
2023-03-05T23:28:32.338Z,95723.84
2023-03-05T23:31:00.150Z,95723.00
2023-03-05T23:33:27.927Z,95719.28
2023-03-05T23:35:57.765Z,95717.09
2023-03-05T23:38:27.256Z,95719.44
2023-03-05T23:40:59.768Z,95713.50
2023-03-05T23:43:28.885Z,95722.50
2023-03-05T23:45:57.144Z,95710.63
2023-03-05T23:48:25.843Z,95711.69
2023-03-05T23:50:53.945Z,95721.75
2023-03-05T23:53:23.153Z,95716.84
2023-03-05T23:55:51.126Z,95719.94
2023-03-05T23:58:21.297Z,95702.94
